createdAt,value
2018-12-05T00:01:34.731Z,21.27
2018-12-05T00:04:01.515Z,20.37
2018-12-05T00:06:28.445Z,21.77
2018-12-05T00:08:55.226Z,22.00
2018-12-05T00:11:22.130Z,19.97
2018-12-05T00:13:49.007Z,20.27
2018-12-05T00:16:15.722Z,19.90
2018-12-05T00:18:42.941Z,20.53
2018-12-05T00:21:10.934Z,23.63
2018-12-05T00:23:37.678Z,18.53
2018-12-05T00:26:04.469Z,19.67
2018-12-05T00:28:31.180Z,20.00
2018-12-05T00:30:57.995Z,20.33
2018-12-05T00:33:24.747Z,21.33
2018-12-05T00:35:51.461Z,22.17
2018-12-05T00:38:18.171Z,23.30
2018-12-05T00:40:45.625Z,22.93
2018-12-05T00:43:12.330Z,21.77
2018-12-05T00:45:39.057Z,18.70
2018-12-05T00:48:05.832Z,19.53
2018-12-05T00:50:32.549Z,19.87
2018-12-05T00:52:59.283Z,17.87
2018-12-05T00:55:26.125Z,20.00
2018-12-05T00:57:52.842Z,18.97
2018-12-05T01:00:19.616Z,17.97
2018-12-05T01:02:46.440Z,17.77
2018-12-05T01:05:13.160Z,13.00
2018-12-05T01:07:39.857Z,12.10
2018-12-05T01:10:06.620Z,12.20
2018-12-05T01:12:33.345Z,10.80
2018-12-05T01:15:00.055Z,10.53
2018-12-05T01:17:26.825Z,9.17
2018-12-05T01:19:53.544Z,8.30
2018-12-05T01:22:20.363Z,9.57
2018-12-05T01:24:47.487Z,9.40
2018-12-05T01:27:14.206Z,10.40
2018-12-05T01:29:40.937Z,11.07
2018-12-05T01:32:07.721Z,10.40
2018-12-05T01:34:34.486Z,11.07
2018-12-05T01:37:01.223Z,10.60
2018-12-05T01:39:28.172Z,13.93
2018-12-05T01:41:54.887Z,13.73
2018-12-05T01:44:21.615Z,13.30
2018-12-05T01:46:48.873Z,11.53
2018-12-05T01:49:15.575Z,9.47
2018-12-05T01:51:42.291Z,9.03
2018-12-05T01:54:09.049Z,8.70
2018-12-05T01:56:35.873Z,9.13
2018-12-05T01:59:02.748Z,9.27
2018-12-05T02:01:29.559Z,8.67
2018-12-05T02:03:56.274Z,8.27
2018-12-05T02:06:22.987Z,9.00
2018-12-05T02:08:50.144Z,8.20
2018-12-05T02:11:16.860Z,8.60
2018-12-05T02:13:43.571Z,7.93
2018-12-05T02:16:10.353Z,9.30
2018-12-05T02:18:37.076Z,8.90
2018-12-05T02:21:03.788Z,9.93
2018-12-05T02:23:30.541Z,9.90
2018-12-05T02:25:57.380Z,10.33
2018-12-05T02:28:24.103Z,9.43
2018-12-05T02:30:50.857Z,9.67
2018-12-05T02:33:17.568Z,9.40
2018-12-05T02:35:44.270Z,10.40
2018-12-05T02:38:11.114Z,12.00
2018-12-05T02:40:37.819Z,11.07
2018-12-05T02:43:04.533Z,10.53
2018-12-05T02:45:31.290Z,10.97
2018-12-05T02:48:02.160Z,10.67
2018-12-05T02:53:03.349Z,9.87
2018-12-05T02:55:30.069Z,10.30
2018-12-05T02:57:56.913Z,10.27
2018-12-05T03:00:23.674Z,10.53
2018-12-05T03:02:50.388Z,10.77
2018-12-05T03:05:17.112Z,12.30
2018-12-05T03:07:43.875Z,13.00
2018-12-05T03:10:10.585Z,12.43
2018-12-05T03:12:37.433Z,12.33
2018-12-05T03:15:04.280Z,14.83
2018-12-05T03:17:31.009Z,17.77
2018-12-05T03:19:57.779Z,19.90
2018-12-05T03:22:24.547Z,20.50
2018-12-05T03:24:51.338Z,19.00
2018-12-05T03:27:18.093Z,22.47
2018-12-05T03:29:44.860Z,25.00
2018-12-05T03:32:11.672Z,28.70
2018-12-05T03:34:38.393Z,28.07
2018-12-05T03:37:05.156Z,26.43
2018-12-05T03:39:31.875Z,25.67
2018-12-05T03:41:58.837Z,21.57
2018-12-05T03:44:25.610Z,19.20
2018-12-05T03:46:52.343Z,17.97
2018-12-05T03:49:19.056Z,15.87
2018-12-05T03:51:45.799Z,15.43
2018-12-05T03:54:12.650Z,15.20
2018-12-05T03:56:39.361Z,16.33
2018-12-05T03:59:06.130Z,15.87
2018-12-05T04:01:32.847Z,15.13
2018-12-05T04:03:59.947Z,15.40
2018-12-05T04:06:26.769Z,15.23
2018-12-05T04:08:53.486Z,15.47
2018-12-05T04:11:20.211Z,16.13
2018-12-05T04:13:46.962Z,15.30
2018-12-05T04:16:13.819Z,15.37
2018-12-05T04:18:40.536Z,14.07
2018-12-05T04:21:07.295Z,13.70
2018-12-05T04:26:07.325Z,14.17
2018-12-05T04:28:34.057Z,13.57
2018-12-05T04:31:00.817Z,16.17
2018-12-05T04:33:27.887Z,14.93
2018-12-05T04:35:54.595Z,13.23
2018-12-05T04:38:21.332Z,14.00
2018-12-05T04:40:48.189Z,15.07
2018-12-05T04:43:15.028Z,14.43
2018-12-05T04:45:41.981Z,13.73
2018-12-05T04:48:08.726Z,14.93
2018-12-05T04:50:35.504Z,15.43
2018-12-05T04:53:02.223Z,14.87
2018-12-05T04:55:28.975Z,15.20
2018-12-05T04:57:55.779Z,15.07
2018-12-05T05:00:22.595Z,15.60
2018-12-05T05:02:49.364Z,15.80
2018-12-05T05:05:16.078Z,16.77
2018-12-05T05:07:42.880Z,16.20
2018-12-05T05:10:11.673Z,15.73
2018-12-05T05:12:38.378Z,17.37
2018-12-05T05:15:05.685Z,18.87
2018-12-05T05:17:32.435Z,16.30
2018-12-05T05:19:59.153Z,18.80
2018-12-05T05:22:25.862Z,17.90
2018-12-05T05:24:52.644Z,16.03
2018-12-05T05:27:19.365Z,15.63
2018-12-05T05:29:46.498Z,15.80
2018-12-05T05:32:13.285Z,15.10
2018-12-05T05:34:39.998Z,15.90
2018-12-05T05:37:07.159Z,16.80
2018-12-05T05:39:33.922Z,21.30
2018-12-05T05:42:00.660Z,20.73
2018-12-05T05:44:27.391Z,22.70
2018-12-05T05:46:54.383Z,26.30
2018-12-05T05:49:21.091Z,30.97
2018-12-05T05:51:48.025Z,33.83
2018-12-05T05:54:14.899Z,32.53
2018-12-05T05:56:41.615Z,32.67
2018-12-05T05:59:08.855Z,32.93
2018-12-05T06:01:35.636Z,32.93
2018-12-05T06:04:02.359Z,34.27
2018-12-05T06:06:29.058Z,33.60
2018-12-05T06:08:56.038Z,32.77
2018-12-05T06:11:22.759Z,34.67
2018-12-05T06:13:49.465Z,34.67
2018-12-05T06:16:16.918Z,33.20
2018-12-05T06:18:43.636Z,30.30
2018-12-05T06:21:10.720Z,31.00
2018-12-05T06:23:37.608Z,29.80
2018-12-05T06:26:04.494Z,30.30
2018-12-05T06:28:31.228Z,30.03
2018-12-05T06:30:58.009Z,31.40
2018-12-05T06:33:24.716Z,29.73
2018-12-05T06:35:51.662Z,29.23
2018-12-05T06:38:18.457Z,27.90
2018-12-05T06:40:45.180Z,30.67
2018-12-05T06:43:12.261Z,28.80
2018-12-05T06:45:39.058Z,26.40
2018-12-05T06:48:05.786Z,30.03
2018-12-05T06:50:32.498Z,29.83
2018-12-05T06:52:59.263Z,29.53
2018-12-05T06:55:25.978Z,25.17
2018-12-05T06:57:52.706Z,25.63
2018-12-05T07:00:19.679Z,29.23
2018-12-05T07:02:46.628Z,27.10
2018-12-05T07:05:13.605Z,26.03
2018-12-05T07:07:40.514Z,26.30
2018-12-05T07:10:07.356Z,27.83
2018-12-05T07:12:34.298Z,25.23
2018-12-05T07:15:01.071Z,26.63
2018-12-05T07:17:27.789Z,25.07
2018-12-05T07:19:54.511Z,22.07
2018-12-05T07:22:21.350Z,23.93
2018-12-05T07:24:48.062Z,25.87
2018-12-05T07:27:15.359Z,25.87
2018-12-05T07:29:42.145Z,27.80
2018-12-05T07:32:08.886Z,28.37
2018-12-05T07:34:35.588Z,29.83
2018-12-05T07:37:02.344Z,30.00
2018-12-05T07:39:29.044Z,28.20
2018-12-05T07:41:55.758Z,28.80
2018-12-05T07:44:22.519Z,27.27
2018-12-05T07:46:49.235Z,27.93
2018-12-05T07:49:16.564Z,30.57
2018-12-05T07:51:43.456Z,31.37
2018-12-05T07:54:10.159Z,29.53
2018-12-05T07:56:36.868Z,30.03
2018-12-05T07:59:03.662Z,29.00
2018-12-05T08:01:30.462Z,25.50
2018-12-05T08:03:57.230Z,27.73
2018-12-05T08:06:24.076Z,25.30
2018-12-05T08:08:50.790Z,25.00
2018-12-05T08:11:17.791Z,22.90
2018-12-05T08:13:44.552Z,17.40
2018-12-05T08:16:11.271Z,17.63
2018-12-05T08:18:37.984Z,18.07
2018-12-05T08:21:04.822Z,19.33
2018-12-05T08:23:31.739Z,21.30
2018-12-05T08:25:58.443Z,18.43
2018-12-05T08:28:25.205Z,18.70
2018-12-05T08:30:51.925Z,19.43
2018-12-05T08:33:19.006Z,19.17
2018-12-05T08:35:45.954Z,19.87
2018-12-05T08:38:12.669Z,22.97
2018-12-05T08:40:40.120Z,26.50
2018-12-05T08:43:06.888Z,25.80
2018-12-05T08:45:33.605Z,27.43
2018-12-05T08:48:00.331Z,20.57
2018-12-05T08:50:27.221Z,20.43
2018-12-05T08:52:54.057Z,27.47
2018-12-05T08:55:20.813Z,18.53
2018-12-05T08:57:47.585Z,21.00
2018-12-05T09:00:14.296Z,23.50
2018-12-05T09:02:41.005Z,23.40
2018-12-05T09:05:07.944Z,16.17
2018-12-05T09:07:34.668Z,16.63
2018-12-05T09:10:01.455Z,23.40
2018-12-05T09:12:28.285Z,22.13
2018-12-05T09:14:55.025Z,19.43
2018-12-05T09:17:21.748Z,12.77
2018-12-05T09:19:48.683Z,11.13
2018-12-05T09:22:15.402Z,13.07
2018-12-05T09:24:42.132Z,13.00
2018-12-05T09:27:08.886Z,12.37
2018-12-05T09:29:35.622Z,13.27
2018-12-05T09:32:02.349Z,12.10
2018-12-05T09:34:29.099Z,14.43
2018-12-05T09:36:56.524Z,15.10
2018-12-05T09:39:23.362Z,12.17
2018-12-05T09:41:50.196Z,12.70
2018-12-05T09:44:17.041Z,12.07
2018-12-05T09:46:43.892Z,11.27
2018-12-05T09:49:10.660Z,10.97
2018-12-05T09:51:37.493Z,10.50
2018-12-05T09:54:04.328Z,11.47
2018-12-05T09:56:31.117Z,12.30
2018-12-05T09:58:57.983Z,10.53
2018-12-05T10:01:24.842Z,11.90
2018-12-05T10:03:51.613Z,12.10
2018-12-05T10:06:18.335Z,10.40
2018-12-05T10:08:45.179Z,12.63
2018-12-05T10:11:17.073Z,14.03
2018-12-05T10:13:43.763Z,15.10
2018-12-05T10:16:10.473Z,19.40
2018-12-05T10:18:37.355Z,16.47
2018-12-05T10:21:04.118Z,16.83
2018-12-05T10:23:30.934Z,17.53
2018-12-05T10:25:57.695Z,20.30
2018-12-05T10:28:24.675Z,19.13
2018-12-05T10:30:51.390Z,19.97
2018-12-05T10:33:18.275Z,17.10
2018-12-05T10:35:45.351Z,20.10
2018-12-05T10:38:12.081Z,14.93
2018-12-05T10:40:38.845Z,26.73
2018-12-05T10:43:05.590Z,21.80
2018-12-05T10:45:32.329Z,23.47
2018-12-05T10:47:59.081Z,18.70
2018-12-05T10:50:26.521Z,16.03
2018-12-05T10:52:53.315Z,14.63
2018-12-05T10:55:20.110Z,14.33
2018-12-05T10:57:46.815Z,14.77
2018-12-05T11:00:15.632Z,25.33
2018-12-05T11:02:48.233Z,16.63
2018-12-05T11:05:20.721Z,14.70
2018-12-05T11:07:53.277Z,16.67
2018-12-05T11:10:25.664Z,17.17
2018-12-05T11:12:58.081Z,13.30
2018-12-05T11:15:30.536Z,19.20
2018-12-05T11:18:03.136Z,16.37
2018-12-05T11:20:35.814Z,14.60
2018-12-05T11:23:08.286Z,12.47
2018-12-05T11:25:35.166Z,10.63
2018-12-05T11:28:01.876Z,9.80
2018-12-05T11:30:28.772Z,10.63
2018-12-05T11:32:55.646Z,10.53
2018-12-05T11:35:22.376Z,11.67
2018-12-05T11:37:49.251Z,11.57
2018-12-05T11:40:17.431Z,12.13
2018-12-05T11:42:44.221Z,14.07
2018-12-05T11:45:10.991Z,15.03
2018-12-05T11:47:37.873Z,12.67
2018-12-05T11:50:05.187Z,12.33
2018-12-05T11:52:32.429Z,12.80
2018-12-05T11:55:00.085Z,13.00
2018-12-05T11:57:26.915Z,15.07
2018-12-05T11:59:53.687Z,15.17
2018-12-05T12:02:22.418Z,14.77
2018-12-05T12:04:49.200Z,14.00
2018-12-05T12:07:16.203Z,14.50
2018-12-05T12:09:42.910Z,15.33
2018-12-05T12:12:11.608Z,16.60
2018-12-05T12:14:38.404Z,17.30
2018-12-05T12:17:05.233Z,19.03
2018-12-05T12:19:31.932Z,17.23
2018-12-05T12:22:03.029Z,16.60
2018-12-05T12:24:34.902Z,24.60
2018-12-05T12:26:58.487Z,23.37
2018-12-05T12:29:25.266Z,19.13
2018-12-05T12:31:52.221Z,14.00
2018-12-05T12:34:19.022Z,15.63
2018-12-05T12:36:45.794Z,16.07
2018-12-05T12:39:12.538Z,16.33
2018-12-05T12:41:39.248Z,14.03
2018-12-05T12:44:06.122Z,14.13
2018-12-05T12:46:32.877Z,16.10
2018-12-05T12:48:59.586Z,16.13
2018-12-05T12:51:26.493Z,13.17
2018-12-05T12:53:53.343Z,15.63
2018-12-05T12:56:20.073Z,18.17
2018-12-05T12:58:46.817Z,15.80
2018-12-05T13:01:13.638Z,17.00
2018-12-05T13:03:40.343Z,16.23
2018-12-05T13:06:07.099Z,14.63
2018-12-05T13:08:33.829Z,20.33
2018-12-05T13:11:00.548Z,24.70
2018-12-05T13:13:27.298Z,16.47
2018-12-05T13:15:54.019Z,18.17
2018-12-05T13:18:20.742Z,13.40
2018-12-05T13:20:47.542Z,26.13
2018-12-05T13:23:14.275Z,57.57
2018-12-05T13:25:41.082Z,38.63
2018-12-05T13:28:08.067Z,19.37
2018-12-05T13:30:35.050Z,11.27
2018-12-05T13:33:01.783Z,8.33
2018-12-05T13:35:28.543Z,9.07
2018-12-05T13:37:55.256Z,9.10
2018-12-05T13:40:22.112Z,21.27
2018-12-05T13:42:48.935Z,16.20
2018-12-05T13:45:15.644Z,7.90
2018-12-05T13:47:42.346Z,7.00
2018-12-05T13:50:09.211Z,11.60
2018-12-05T13:52:35.916Z,14.43
2018-12-05T13:55:02.733Z,14.37
2018-12-05T13:57:29.483Z,14.97
2018-12-05T13:59:56.232Z,16.77
2018-12-05T14:02:23.059Z,19.27
2018-12-05T14:04:50.000Z,19.43
2018-12-05T14:07:16.840Z,17.67
2018-12-05T14:09:43.743Z,16.63
2018-12-05T14:12:12.589Z,18.13
2018-12-05T14:14:39.327Z,18.13
2018-12-05T14:17:06.041Z,19.07
2018-12-05T14:19:32.794Z,15.47
2018-12-05T14:22:00.139Z,15.03
2018-12-05T14:24:26.851Z,16.87
2018-12-05T14:26:53.623Z,16.67
2018-12-05T14:29:20.358Z,19.47
2018-12-05T14:31:47.064Z,22.03
2018-12-05T14:34:13.837Z,22.43
2018-12-05T14:36:40.573Z,26.83
2018-12-05T14:39:07.449Z,30.30
2018-12-05T14:41:34.195Z,37.50
2018-12-05T14:44:01.045Z,45.13
2018-12-05T14:46:27.985Z,48.73
2018-12-05T14:48:54.827Z,50.47
2018-12-05T14:51:21.645Z,45.47
2018-12-05T14:53:48.359Z,39.67
2018-12-05T14:56:15.117Z,56.73
2018-12-05T14:58:41.848Z,68.10
2018-12-05T15:01:08.559Z,53.60
2018-12-05T15:03:35.332Z,42.97
2018-12-05T15:06:02.041Z,38.87
2018-12-05T15:08:29.388Z,35.73
2018-12-05T15:10:56.171Z,37.27
2018-12-05T15:13:22.903Z,33.90
2018-12-05T15:15:49.683Z,36.57
2018-12-05T15:18:16.444Z,32.93
2018-12-05T15:20:43.371Z,33.37
2018-12-05T15:23:10.112Z,37.77
2018-12-05T15:25:36.858Z,36.53
2018-12-05T15:28:03.570Z,36.90
2018-12-05T15:30:30.424Z,51.50
2018-12-05T15:32:57.291Z,190.53
2018-12-05T15:35:24.018Z,157.90
2018-12-05T15:37:50.759Z,240.13
2018-12-05T15:40:17.516Z,255.37
2018-12-05T15:42:44.245Z,211.17
2018-12-05T15:45:10.971Z,132.33
2018-12-05T15:47:37.768Z,114.47
2018-12-05T15:50:05.086Z,101.23
2018-12-05T15:52:31.922Z,113.63
2018-12-05T15:54:58.681Z,100.93
2018-12-05T15:57:25.512Z,93.60
2018-12-05T15:59:52.573Z,94.20
2018-12-05T16:02:19.379Z,89.13
2018-12-05T16:04:46.238Z,79.07
2018-12-05T16:07:13.049Z,82.93
2018-12-05T16:09:39.819Z,90.13
2018-12-05T16:12:06.535Z,95.33
2018-12-05T16:14:33.246Z,87.40
2018-12-05T16:17:00.055Z,86.90
2018-12-05T16:19:26.767Z,91.63
2018-12-05T16:21:53.943Z,102.47
2018-12-05T16:24:20.806Z,103.63
2018-12-05T16:26:47.532Z,118.00
2018-12-05T16:29:14.262Z,107.90
2018-12-05T16:31:41.039Z,100.67
2018-12-05T16:34:07.778Z,109.47
2018-12-05T16:36:35.446Z,130.03
2018-12-05T16:39:02.376Z,116.43
2018-12-05T16:41:29.805Z,113.33
2018-12-05T16:43:56.522Z,111.50
2018-12-05T16:46:23.285Z,111.23
2018-12-05T16:48:50.057Z,221.67
2018-12-05T16:51:16.778Z,343.30
2018-12-05T16:53:43.572Z,630.97
2018-12-05T16:56:10.309Z,414.53
2018-12-05T16:58:37.438Z,377.00
2018-12-05T17:01:04.286Z,328.83
2018-12-05T17:03:31.018Z,290.20
2018-12-05T17:05:58.216Z,285.57
2018-12-05T17:08:24.978Z,311.73
2018-12-05T17:10:51.839Z,327.27
2018-12-05T17:13:18.652Z,328.33
2018-12-05T17:15:45.475Z,324.53
2018-12-05T17:18:12.194Z,307.23
2018-12-05T17:20:38.909Z,287.17
2018-12-05T17:23:05.668Z,307.03
2018-12-05T17:25:32.395Z,342.03
2018-12-05T17:27:59.525Z,303.53
2018-12-05T17:30:26.298Z,260.30
2018-12-05T17:32:53.107Z,248.47
2018-12-05T17:35:19.938Z,234.50
2018-12-05T17:37:46.711Z,229.20
2018-12-05T17:40:13.432Z,206.33
2018-12-05T17:42:40.152Z,187.67
2018-12-05T17:45:06.979Z,160.73
2018-12-05T17:47:33.756Z,165.17
2018-12-05T17:50:00.829Z,150.13
2018-12-05T17:52:27.583Z,142.33
2018-12-05T17:54:54.457Z,149.80
2018-12-05T17:57:21.171Z,158.17
2018-12-05T17:59:47.970Z,167.73
2018-12-05T18:02:14.819Z,184.13
2018-12-05T18:04:41.539Z,190.53
2018-12-05T18:07:08.306Z,202.63
2018-12-05T18:09:35.139Z,212.93
2018-12-05T18:12:02.099Z,216.97
2018-12-05T18:14:28.936Z,220.17
2018-12-05T18:16:55.681Z,214.23
2018-12-05T18:19:22.399Z,213.37
2018-12-05T18:21:49.827Z,221.73
2018-12-05T18:24:16.610Z,227.87
2018-12-05T18:26:43.457Z,230.67
2018-12-05T18:29:10.296Z,231.10
2018-12-05T18:31:37.012Z,235.87
2018-12-05T18:34:04.106Z,225.57
2018-12-05T18:36:30.869Z,225.70
2018-12-05T18:38:57.586Z,221.00
2018-12-05T18:41:24.301Z,210.03
2018-12-05T18:43:51.253Z,211.00
2018-12-05T18:46:17.995Z,224.10
2018-12-05T18:48:44.845Z,226.53
2018-12-05T18:51:11.615Z,225.90
2018-12-05T18:53:38.329Z,218.60
2018-12-05T18:56:05.183Z,206.67
2018-12-05T18:58:31.931Z,201.57
2018-12-05T19:00:58.668Z,214.67
2018-12-05T19:03:25.593Z,226.33
2018-12-05T19:05:52.363Z,231.90
2018-12-05T19:08:19.084Z,224.57
2018-12-05T19:10:45.819Z,231.17
2018-12-05T19:13:12.626Z,227.27
2018-12-05T19:15:39.336Z,247.60
2018-12-05T19:18:06.432Z,242.40
2018-12-05T19:20:33.274Z,242.77
2018-12-05T19:23:00.006Z,231.80
2018-12-05T19:25:26.728Z,240.83
2018-12-05T19:27:53.724Z,244.07
2018-12-05T19:30:20.478Z,241.63
2018-12-05T19:32:47.219Z,243.43
2018-12-05T19:35:14.068Z,284.70
2018-12-05T19:37:40.835Z,295.67
2018-12-05T19:40:07.589Z,312.27
2018-12-05T19:42:34.536Z,313.60
2018-12-05T19:45:01.423Z,308.47
2018-12-05T19:47:28.463Z,297.70
2018-12-05T19:49:55.411Z,285.47
2018-12-05T19:52:22.456Z,303.00
2018-12-05T19:54:49.264Z,304.60
2018-12-05T19:57:16.577Z,310.23
2018-12-05T19:59:43.613Z,310.17
2018-12-05T20:02:10.492Z,308.97
2018-12-05T20:04:37.540Z,311.40
2018-12-05T20:07:04.294Z,300.43
2018-12-05T20:09:31.058Z,302.93
2018-12-05T20:11:57.855Z,307.40
2018-12-05T20:14:28.871Z,299.70
2018-12-05T20:16:55.698Z,288.17
2018-12-05T20:19:22.661Z,293.20
2018-12-05T20:21:49.440Z,298.30
2018-12-05T20:24:16.201Z,305.47
2018-12-05T20:26:43.030Z,301.40
2018-12-05T20:29:09.795Z,302.67
2018-12-05T20:31:36.678Z,302.97
2018-12-05T20:34:03.523Z,321.90
2018-12-05T20:36:30.460Z,331.80
2018-12-05T20:38:57.215Z,323.63
2018-12-05T20:41:31.282Z,305.23
2018-12-05T20:43:53.130Z,278.77
2018-12-05T20:46:19.920Z,303.03
2018-12-05T20:48:46.841Z,290.33
2018-12-05T20:51:13.906Z,287.37
2018-12-05T20:53:40.673Z,275.87
2018-12-05T20:56:07.484Z,288.50
2018-12-05T20:58:34.537Z,266.07
2018-12-05T21:01:01.505Z,260.70
2018-12-05T21:03:28.422Z,251.80
2018-12-05T21:05:55.259Z,247.70
2018-12-05T21:08:22.092Z,241.87
2018-12-05T21:10:48.959Z,232.63
2018-12-05T21:13:16.045Z,237.33
2018-12-05T21:15:42.975Z,228.63
2018-12-05T21:18:10.311Z,227.57
2018-12-05T21:20:37.129Z,210.03
2018-12-05T21:23:03.954Z,223.47
2018-12-05T21:25:30.819Z,209.30
2018-12-05T21:27:57.873Z,190.50
2018-12-05T21:30:24.792Z,175.63
2018-12-05T21:32:51.641Z,178.60
2018-12-05T21:35:18.584Z,168.67
2018-12-05T21:37:45.439Z,178.03
2018-12-05T21:40:12.277Z,174.80
2018-12-05T21:42:39.040Z,172.23
2018-12-05T21:45:06.056Z,169.90
2018-12-05T21:47:33.010Z,167.00
2018-12-05T21:49:59.859Z,176.23
2018-12-05T21:52:26.624Z,179.70
2018-12-05T21:54:53.555Z,186.03
2018-12-05T21:57:20.408Z,205.13
2018-12-05T21:59:47.239Z,199.00
2018-12-05T22:02:14.263Z,202.90
2018-12-05T22:04:41.125Z,211.13
2018-12-05T22:07:08.073Z,223.43
2018-12-05T22:09:34.999Z,259.37
2018-12-05T22:12:01.953Z,284.23
2018-12-05T22:14:28.711Z,278.27
2018-12-05T22:16:55.634Z,250.97
2018-12-05T22:19:22.574Z,232.40
2018-12-05T22:21:49.335Z,222.17
2018-12-05T22:24:16.184Z,223.87
2018-12-05T22:26:42.945Z,219.17
2018-12-05T22:29:09.869Z,218.47
2018-12-05T22:31:36.795Z,222.43
2018-12-05T22:34:03.657Z,233.23
2018-12-05T22:36:30.498Z,227.23
2018-12-05T22:38:57.298Z,239.43
2018-12-05T22:41:24.102Z,246.30
2018-12-05T22:43:50.937Z,246.97
2018-12-05T22:46:17.865Z,242.57
2018-12-05T22:48:44.796Z,237.50
2018-12-05T22:51:11.660Z,226.23
2018-12-05T22:53:38.812Z,211.87
2018-12-05T22:56:05.565Z,208.33
2018-12-05T22:58:32.380Z,206.37
2018-12-05T23:00:59.236Z,202.53
2018-12-05T23:03:26.029Z,202.60
2018-12-05T23:05:52.903Z,204.83
2018-12-05T23:08:19.774Z,198.87
2018-12-05T23:10:46.562Z,199.07
2018-12-05T23:13:13.315Z,198.10
2018-12-05T23:15:40.306Z,196.83
2018-12-05T23:18:07.071Z,195.27
2018-12-05T23:20:33.827Z,192.90
2018-12-05T23:23:00.728Z,188.63
2018-12-05T23:25:27.472Z,183.83
2018-12-05T23:27:54.239Z,182.17
2018-12-05T23:30:21.043Z,178.60
2018-12-05T23:32:47.792Z,174.73
2018-12-05T23:35:14.537Z,173.30
2018-12-05T23:37:41.341Z,170.60
2018-12-05T23:40:08.094Z,174.73
2018-12-05T23:42:35.064Z,173.87
2018-12-05T23:45:01.878Z,166.63
2018-12-05T23:47:28.664Z,175.90
2018-12-05T23:49:55.419Z,162.53
2018-12-05T23:52:22.329Z,165.63
2018-12-05T23:54:49.176Z,164.80
2018-12-05T23:57:16.204Z,172.97
2018-12-05T23:59:42.998Z,180.17
